createdAt,value
2023-03-06T00:00:53.104Z,62.32
2023-03-06T00:04:19.212Z,58.27
2023-03-06T00:07:45.338Z,55.99
2023-03-06T00:11:14.816Z,56.86
2023-03-06T00:14:40.565Z,57.88
2023-03-06T00:18:07.075Z,59.10
2023-03-06T00:21:32.948Z,59.47
2023-03-06T00:25:00.916Z,59.41
2023-03-06T00:28:30.988Z,59.33
2023-03-06T00:31:56.610Z,59.60
2023-03-06T00:35:22.250Z,59.73
2023-03-06T00:38:50.074Z,60.03
2023-03-06T00:42:16.327Z,60.89
2023-03-06T00:45:42.070Z,65.00
2023-03-06T00:49:07.797Z,74.64
2023-03-06T00:52:33.814Z,71.91
2023-03-06T00:56:01.769Z,66.57
2023-03-06T00:59:28.724Z,63.33
2023-03-06T01:02:56.659Z,59.46
2023-03-06T01:06:22.650Z,55.42
2023-03-06T01:09:48.202Z,57.71
2023-03-06T01:13:15.691Z,59.93
2023-03-06T01:16:41.521Z,60.94
2023-03-06T01:20:08.203Z,61.27
2023-03-06T01:23:36.089Z,60.71
2023-03-06T01:27:02.900Z,59.70
2023-03-06T01:30:30.775Z,59.31
2023-03-06T01:33:56.503Z,59.35
2023-03-06T01:37:22.249Z,59.51
2023-03-06T01:40:48.080Z,59.88
2023-03-06T01:44:14.559Z,60.46
2023-03-06T01:47:41.040Z,61.12
2023-03-06T01:51:07.838Z,62.78
2023-03-06T01:54:39.972Z,72.03
2023-03-06T01:58:08.283Z,75.22
2023-03-06T02:01:34.466Z,71.07
2023-03-06T02:05:02.227Z,67.64
2023-03-06T02:08:28.327Z,63.31
2023-03-06T02:11:54.081Z,59.17
2023-03-06T02:15:21.835Z,55.41
2023-03-06T02:18:47.989Z,57.88
2023-03-06T02:22:15.947Z,59.25
2023-03-06T02:25:44.829Z,59.50
2023-03-06T02:29:11.032Z,59.41
2023-03-06T02:32:37.202Z,59.51
2023-03-06T02:36:04.882Z,59.04
2023-03-06T02:39:33.447Z,58.97
2023-03-06T02:42:59.824Z,64.11
2023-03-06T02:46:27.032Z,73.23
2023-03-06T02:49:53.271Z,71.43
2023-03-06T02:53:20.206Z,66.69
2023-03-06T02:56:47.320Z,62.28
2023-03-06T03:00:14.557Z,58.33
2023-03-06T03:03:40.724Z,54.95
2023-03-06T03:07:06.955Z,57.22
2023-03-06T03:10:33.884Z,57.56
2023-03-06T03:14:02.882Z,58.00
2023-03-06T03:17:35.699Z,58.41
2023-03-06T03:21:02.965Z,58.41
2023-03-06T03:24:30.345Z,59.05
2023-03-06T03:27:56.983Z,59.71
2023-03-06T03:31:24.779Z,60.65
2023-03-06T03:34:50.660Z,67.52
2023-03-06T03:38:16.563Z,74.57
2023-03-06T03:41:42.701Z,70.60
2023-03-06T03:45:10.204Z,66.11
2023-03-06T03:48:27.303Z,62.27
2023-03-06T03:51:55.709Z,58.14
2023-03-06T03:55:23.153Z,56.19
2023-03-06T03:58:52.215Z,58.55
2023-03-06T04:02:27.931Z,59.60
2023-03-06T04:06:04.594Z,59.31
2023-03-06T04:09:31.818Z,60.24
2023-03-06T04:12:58.523Z,59.58
2023-03-06T04:16:25.218Z,62.19
2023-03-06T04:19:51.671Z,72.17
2023-03-06T04:23:18.046Z,71.84
2023-03-06T04:26:52.161Z,66.17
2023-03-06T04:30:29.727Z,62.30
2023-03-06T04:33:58.118Z,57.42
2023-03-06T04:37:29.670Z,55.92
2023-03-06T04:40:59.058Z,58.61
2023-03-06T04:44:25.213Z,59.48
2023-03-06T04:47:53.854Z,59.56
2023-03-06T04:51:41.598Z,59.11
2023-03-06T04:55:14.135Z,63.95
2023-03-06T04:58:40.453Z,72.69
2023-03-06T05:02:26.561Z,70.95
2023-03-06T05:05:55.805Z,65.54
2023-03-06T05:09:23.768Z,62.17
2023-03-06T05:12:53.991Z,58.52
2023-03-06T05:16:45.070Z,55.71
2023-03-06T05:20:12.811Z,57.83
2023-03-06T05:23:40.133Z,57.72
2023-03-06T05:27:27.363Z,57.24
2023-03-06T05:31:22.631Z,62.50
2023-03-06T05:34:49.347Z,71.41
2023-03-06T05:38:37.077Z,68.03
2023-03-06T05:42:04.465Z,62.99
2023-03-06T05:45:34.177Z,58.08
2023-03-06T05:48:59.995Z,55.17
2023-03-06T05:52:28.847Z,57.52
2023-03-06T05:56:00.074Z,59.15
2023-03-06T05:59:46.509Z,61.03
2023-03-06T06:03:18.451Z,60.17
2023-03-06T06:07:24.673Z,60.48
2023-03-06T06:10:53.519Z,60.05
2023-03-06T06:14:20.284Z,59.85
2023-03-06T06:18:08.461Z,59.73
2023-03-06T06:21:35.991Z,59.81
2023-03-06T06:25:23.705Z,62.25
2023-03-06T06:28:51.395Z,73.75
2023-03-06T06:32:17.656Z,71.83
2023-03-06T06:35:44.082Z,65.22
2023-03-06T06:39:12.855Z,62.03
2023-03-06T06:42:40.381Z,56.68
2023-03-06T06:46:38.831Z,54.73
2023-03-06T06:49:53.536Z,55.38
2023-03-06T06:53:19.395Z,57.25
2023-03-06T06:56:45.362Z,58.06
2023-03-06T07:00:14.465Z,60.65
2023-03-06T07:03:40.725Z,69.97
2023-03-06T07:07:06.465Z,70.30
2023-03-06T07:10:32.460Z,64.46
2023-03-06T07:13:58.425Z,60.81
2023-03-06T07:17:24.341Z,55.92
2023-03-06T07:20:50.203Z,53.91
2023-03-06T07:24:16.659Z,54.70
2023-03-06T07:27:44.324Z,60.98
2023-03-06T07:31:08.704Z,66.84
2023-03-06T07:35:27.205Z,65.84
2023-03-06T07:39:02.677Z,60.54
2023-03-06T07:42:29.468Z,55.14
2023-03-06T07:45:58.968Z,58.54
2023-03-06T07:49:24.990Z,64.15
2023-03-06T07:52:52.844Z,65.55
2023-03-06T07:56:18.640Z,62.37
2023-03-06T07:59:44.397Z,57.01
2023-03-06T08:03:11.421Z,55.69
2023-03-06T08:06:37.165Z,57.31
2023-03-06T08:10:05.191Z,61.28
2023-03-06T08:13:31.017Z,68.10
2023-03-06T08:16:57.423Z,68.12
2023-03-06T08:20:23.458Z,65.64
2023-03-06T08:23:49.162Z,62.17
2023-03-06T08:27:15.064Z,58.88
2023-03-06T08:30:41.056Z,56.74
2023-03-06T08:34:07.619Z,59.88
2023-03-06T08:37:33.487Z,65.59
2023-03-06T08:40:59.441Z,63.67
2023-03-06T08:45:12.724Z,59.34
2023-03-06T08:48:12.077Z,52.41
2023-03-06T08:51:37.886Z,51.76
2023-03-06T08:55:04.143Z,56.48
2023-03-06T08:58:30.607Z,56.58
2023-03-06T09:01:56.276Z,62.42
2023-03-06T09:05:22.374Z,65.44
2023-03-06T09:08:56.572Z,57.84
2023-03-06T09:12:24.671Z,51.90
2023-03-06T09:15:50.579Z,53.15
2023-03-06T09:19:16.261Z,55.26
2023-03-06T09:22:46.152Z,54.75
2023-03-06T09:26:12.224Z,56.21
2023-03-06T09:29:37.771Z,56.93
2023-03-06T09:33:03.394Z,57.71
2023-03-06T09:36:29.389Z,60.93
2023-03-06T09:39:55.280Z,70.15
2023-03-06T09:43:26.666Z,66.01
2023-03-06T09:47:14.864Z,58.43
2023-03-06T09:50:45.621Z,52.72
2023-03-06T09:54:13.328Z,51.97
2023-03-06T09:57:42.374Z,52.10
2023-03-06T10:01:13.133Z,54.17
2023-03-06T10:04:41.501Z,64.77
2023-03-06T10:08:13.341Z,60.50
2023-03-06T10:11:40.492Z,50.62
2023-03-06T10:15:13.169Z,48.99
2023-03-06T10:18:39.227Z,52.80
2023-03-06T10:22:07.826Z,50.83
2023-03-06T10:25:37.973Z,50.80
2023-03-06T10:29:17.432Z,51.74
2023-03-06T10:32:49.477Z,52.13
2023-03-06T10:36:16.266Z,54.50
2023-03-06T10:39:41.952Z,56.23
2023-03-06T10:43:12.388Z,55.53
2023-03-06T10:46:39.384Z,63.02
2023-03-06T10:50:08.419Z,60.90
2023-03-06T10:53:34.128Z,53.54
2023-03-06T10:57:09.430Z,51.98
2023-03-06T11:00:36.265Z,56.81
2023-03-06T11:04:15.106Z,60.15
2023-03-06T11:07:54.753Z,61.90
2023-03-06T11:11:36.801Z,61.14
2023-03-06T11:15:21.059Z,56.21
2023-03-06T11:18:56.485Z,56.78
2023-03-06T11:22:22.216Z,57.75
2023-03-06T11:25:50.467Z,61.07
2023-03-06T11:29:29.376Z,60.50
2023-03-06T11:32:58.563Z,60.24
2023-03-06T11:36:27.385Z,60.77
2023-03-06T11:39:58.084Z,61.45
2023-03-06T11:43:26.439Z,61.47
2023-03-06T11:46:54.770Z,62.52
2023-03-06T11:50:23.639Z,61.68
2023-03-06T11:53:49.449Z,58.84
2023-03-06T11:57:16.671Z,60.26
2023-03-06T12:00:49.662Z,62.87
2023-03-06T12:04:32.200Z,61.69
2023-03-06T12:08:03.331Z,60.24
2023-03-06T12:11:33.377Z,59.41
2023-03-06T12:15:08.374Z,62.34
2023-03-06T12:18:46.057Z,61.37
2023-03-06T12:22:21.439Z,59.33
2023-03-06T12:25:49.679Z,62.45
2023-03-06T12:29:23.926Z,60.45
2023-03-06T12:32:53.629Z,59.93
2023-03-06T12:36:30.872Z,63.09
2023-03-06T12:40:23.904Z,61.72
2023-03-06T12:43:55.252Z,59.15
2023-03-06T12:47:17.068Z,59.78
2023-03-06T12:50:28.028Z,62.22
2023-03-06T12:53:37.242Z,61.71
2023-03-06T12:56:55.143Z,59.64
2023-03-06T13:00:40.522Z,59.77
2023-03-06T13:04:01.527Z,62.72
2023-03-06T13:07:28.982Z,61.81
2023-03-06T13:10:40.040Z,59.32
2023-03-06T13:14:19.475Z,62.11
2023-03-06T13:17:45.230Z,61.45
2023-03-06T13:21:25.491Z,59.17
2023-03-06T13:24:43.354Z,61.85
2023-03-06T13:28:03.328Z,63.00
2023-03-06T13:31:24.963Z,61.28
2023-03-06T13:34:47.873Z,60.81
2023-03-06T13:38:30.492Z,59.59
2023-03-06T13:41:58.215Z,62.82
2023-03-06T13:45:26.872Z,60.47
2023-03-06T13:48:45.970Z,58.91
2023-03-06T13:52:09.532Z,61.63
2023-03-06T13:55:27.625Z,62.27
2023-03-06T13:59:04.053Z,59.94
2023-03-06T14:02:42.124Z,60.51
2023-03-06T14:05:55.367Z,63.35
2023-03-06T14:09:04.956Z,61.21
2023-03-06T14:12:25.007Z,60.03
2023-03-06T14:15:52.205Z,58.18
2023-03-06T14:19:18.906Z,61.92
2023-03-06T14:22:37.138Z,62.67
2023-03-06T14:25:46.291Z,59.53
2023-03-06T14:29:20.307Z,61.90
2023-03-06T14:32:49.956Z,63.08
2023-03-06T14:36:17.527Z,60.82
2023-03-06T14:39:45.280Z,60.34
2023-03-06T14:43:14.030Z,59.67
2023-03-06T14:46:39.869Z,57.96
2023-03-06T14:50:23.320Z,61.78
2023-03-06T14:53:42.459Z,62.08
2023-03-06T14:57:02.668Z,59.06
2023-03-06T15:00:34.636Z,61.25
2023-03-06T15:04:01.372Z,63.27
2023-03-06T15:07:23.488Z,59.86
2023-03-06T15:10:30.612Z,58.66
2023-03-06T15:14:03.114Z,61.60
2023-03-06T15:17:29.706Z,62.14
2023-03-06T15:20:53.653Z,58.27
2023-03-06T15:24:29.774Z,58.96
2023-03-06T15:27:50.524Z,62.66
2023-03-06T15:31:22.010Z,61.62
2023-03-06T15:34:49.767Z,57.51
2023-03-06T15:38:34.825Z,60.73
2023-03-06T15:41:59.682Z,63.36
2023-03-06T15:45:36.173Z,63.94
2023-03-06T15:48:51.864Z,57.53
2023-03-06T15:52:21.463Z,61.68
2023-03-06T15:55:37.857Z,64.26
2023-03-06T15:58:53.555Z,59.87
2023-03-06T16:02:14.887Z,58.53
2023-03-06T16:05:31.103Z,62.33
2023-03-06T16:08:55.653Z,63.28
2023-03-06T16:12:01.274Z,58.28
2023-03-06T16:15:20.621Z,55.66
2023-03-06T16:18:37.805Z,56.69
2023-03-06T16:21:44.207Z,61.58
2023-03-06T16:24:52.590Z,60.85
2023-03-06T16:28:11.209Z,60.52
2023-03-06T16:31:28.288Z,66.28
2023-03-06T16:34:34.008Z,69.39
2023-03-06T16:37:42.604Z,66.57
2023-03-06T16:40:59.348Z,60.08
2023-03-06T16:44:11.796Z,54.06
2023-03-06T16:47:27.898Z,54.27
2023-03-06T16:50:43.769Z,55.49
2023-03-06T16:53:55.364Z,55.59
2023-03-06T16:57:04.217Z,59.91
2023-03-06T17:00:11.312Z,58.14
2023-03-06T17:03:20.038Z,61.06
2023-03-06T17:06:25.723Z,66.38
2023-03-06T17:09:31.613Z,64.73
2023-03-06T17:12:37.262Z,64.71
2023-03-06T17:15:42.828Z,63.31
2023-03-06T17:18:50.979Z,57.34
2023-03-06T17:21:56.364Z,55.24
2023-03-06T17:25:14.687Z,54.86
2023-03-06T17:28:20.131Z,55.99
2023-03-06T17:31:47.259Z,55.37
2023-03-06T17:34:53.099Z,56.14
2023-03-06T17:38:03.621Z,56.70
2023-03-06T17:41:18.507Z,58.11
2023-03-06T17:44:27.137Z,59.37
2023-03-06T17:47:32.834Z,60.34
2023-03-06T17:50:38.282Z,59.64
2023-03-06T17:53:43.632Z,59.92
2023-03-06T17:56:52.234Z,60.87
2023-03-06T17:59:57.859Z,61.66
2023-03-06T18:03:03.426Z,65.18
2023-03-06T18:06:10.470Z,73.63
2023-03-06T18:09:15.958Z,74.77
2023-03-06T18:12:33.189Z,71.12
2023-03-06T18:15:41.623Z,66.19
2023-03-06T18:18:52.221Z,62.60
2023-03-06T18:22:08.527Z,59.71
2023-03-06T18:25:14.452Z,55.55
2023-03-06T18:28:20.109Z,56.54
2023-03-06T18:31:26.713Z,58.17
2023-03-06T18:34:32.227Z,59.42
2023-03-06T18:37:37.965Z,58.92
2023-03-06T18:40:56.780Z,58.69
2023-03-06T18:44:14.691Z,59.52
2023-03-06T18:47:20.107Z,59.66
2023-03-06T18:50:25.554Z,59.77
2023-03-06T18:53:30.959Z,60.30
2023-03-06T18:56:36.586Z,60.93
2023-03-06T18:59:42.017Z,60.90
2023-03-06T19:02:50.469Z,61.03
2023-03-06T19:11:04.834Z,62.22
2023-03-06T19:14:18.062Z,67.08
2023-03-06T19:17:25.015Z,75.58
2023-03-06T19:20:30.503Z,73.14
2023-03-06T19:23:35.954Z,69.19
2023-03-06T19:26:55.177Z,65.19
2023-03-06T19:30:00.699Z,62.29
2023-03-06T19:33:09.094Z,59.79
2023-03-06T19:36:15.429Z,56.07
2023-03-06T19:39:22.401Z,57.05
2023-03-06T19:42:47.997Z,59.62
2023-03-06T19:46:00.663Z,61.58
2023-03-06T19:49:11.827Z,68.27
2023-03-06T19:52:18.207Z,69.79
2023-03-06T19:55:28.596Z,65.37
2023-03-06T19:58:34.206Z,61.66
2023-03-06T20:01:39.761Z,56.64
2023-03-06T20:04:45.480Z,55.94
2023-03-06T20:07:51.514Z,57.63
2023-03-06T20:10:59.851Z,59.00
2023-03-06T20:14:05.881Z,59.64
2023-03-06T20:17:11.288Z,59.98
2023-03-06T20:20:16.853Z,59.71
2023-03-06T20:23:22.294Z,59.64
2023-03-06T20:26:28.396Z,59.70
2023-03-06T20:29:33.983Z,59.53
2023-03-06T20:32:39.853Z,59.63
2023-03-06T20:35:48.228Z,59.99
2023-03-06T20:38:56.969Z,60.77
2023-03-06T20:42:02.461Z,61.44
2023-03-06T20:45:08.873Z,62.97
2023-03-06T20:48:14.203Z,71.21
2023-03-06T20:51:20.658Z,73.40
2023-03-06T20:54:26.316Z,70.82
2023-03-06T20:57:31.882Z,67.67
2023-03-06T21:00:37.426Z,64.17
2023-03-06T21:03:42.859Z,60.32
2023-03-06T21:06:48.250Z,55.74
2023-03-06T21:09:53.784Z,56.06
2023-03-06T21:12:59.539Z,57.83
2023-03-06T21:16:09.759Z,58.94
2023-03-06T21:19:15.288Z,59.43
2023-03-06T21:22:20.980Z,59.17
2023-03-06T21:25:26.455Z,58.97
2023-03-06T21:28:31.956Z,58.89
2023-03-06T21:31:37.450Z,59.02
2023-03-06T21:34:52.293Z,59.24
2023-03-06T21:37:57.935Z,59.68
2023-03-06T21:41:08.949Z,60.44
2023-03-06T21:44:14.477Z,61.45
2023-03-06T21:47:20.012Z,62.32
2023-03-06T21:50:28.782Z,68.82
2023-03-06T21:53:37.031Z,74.44
2023-03-06T21:56:44.826Z,70.54
2023-03-06T21:59:55.713Z,65.89
2023-03-06T22:03:04.869Z,62.63
2023-03-06T22:06:14.226Z,60.24
2023-03-06T22:09:20.067Z,56.06
2023-03-06T22:12:27.852Z,56.19
2023-03-06T22:15:35.504Z,57.95
2023-03-06T22:18:46.637Z,58.64
2023-03-06T22:21:56.675Z,59.02
2023-03-06T22:25:06.043Z,58.71
2023-03-06T22:28:31.980Z,58.71
2023-03-06T22:31:39.898Z,58.57
2023-03-06T22:34:47.956Z,58.72
2023-03-06T22:38:04.687Z,59.06
2023-03-06T22:41:13.843Z,59.64
2023-03-06T22:44:20.267Z,60.44
2023-03-06T22:47:25.638Z,62.77
2023-03-06T22:50:31.119Z,72.27
2023-03-06T22:53:39.546Z,71.75
2023-03-06T22:56:44.923Z,67.46
2023-03-06T22:59:50.484Z,64.39
2023-03-06T23:02:56.030Z,61.88
2023-03-06T23:06:01.403Z,59.24
2023-03-06T23:09:08.000Z,57.95
2023-03-06T23:12:31.863Z,56.71
2023-03-06T23:15:56.134Z,55.82
2023-03-06T23:19:20.072Z,56.55
2023-03-06T23:22:44.272Z,54.64
2023-03-06T23:26:09.322Z,52.82
2023-03-06T23:29:14.916Z,53.03
2023-03-06T23:32:20.588Z,53.71
2023-03-06T23:35:26.128Z,55.71
2023-03-06T23:38:35.146Z,55.44
2023-03-06T23:41:40.992Z,59.46
2023-03-06T23:44:50.087Z,65.66
2023-03-06T23:47:57.830Z,69.92
2023-03-06T23:51:05.794Z,67.95
2023-03-06T23:54:11.595Z,64.85
2023-03-06T23:57:17.525Z,62.90
